Yacolt, Washington
Current Conditions -  °F | °C
As of 1:33 AM on Friday 24 Oct 2014 (Local Time) from KVUO Reporting Station
Overcast Overcast  
Wind Chill: 53°   Ceiling: 3500
Heat Index: 53°   Visibility: 10mi
Dew Point: 51°   Wind: 3mph
Humidity: 93%   Direction: 80°E
Pressure: 30.03"   Gusts: NA
Location:  45.87°N, 122.41°W
Report Text: KVUO 240833Z AUTO 08003KT 10SM FEW026 BKN035 OVC050 12/11 A3003 RMK AO2 T01170106
Loading
Personal Weather Stations






























Interactive Weather Map
Tropical Storm Tracking
New forecast layout! Learn more

10-Day Weather Forecast

Advertisements
Track Severe Weather on mobile